Roaring Spring, PA

3:50 PM EDT on July 23, 2016 (GMT -0400)
Pleasant View | | Change Station

Elev 1178 ft 40.41 °N, 78.42 °W | Updated 9 minutes ago

Clear
Clear
90.7 °F
Feels Like 96 °F
N
2.0
Wind Variable Wind from West
Gusts 9.0 mph

Today
High -- | Low -- °F
--% Chance of Precip.
Yesterday
High -- | Low -- °F
Precip. -- in
Pressure 29.94 in
Visibility 10.0 miles
Clouds Clear
Heat Index 96 °F
Dew Point 70 °F
Humidity 51%
Rainfall 0.00 in
Snow Depth Not available.
6:03 AM 8:36 PM
Waning Gibbous, 83% visible
METAR KAOO 231853Z AUTO 28010KT 10SM CLR 34/17 A2998 RMK AO2 LTG DSNT W SLP138 T03440167
Pressure 29.94 in
Visibility 10.0 miles
Clouds Clear
Heat Index 96 °F
Dew Point 70 °F
Humidity 51%
Rainfall 0.00 in
Snow Depth Not available.
6:03 AM 8:36 PM
Waning Gibbous, 83% visible
METAR KAOO 231853Z AUTO 28010KT 10SM CLR 34/17 A2998 RMK AO2 LTG DSNT W SLP138 T03440167

10-Day Weather Forecast

Almanac

Astronomy

Jul. 23, 2016 Rise Set
Actual Time
Civil Twilight
Nautical Twilight
Astronomical Twilight
Moon
Length of Visible Light
Length of Day
Tomorrow will be .
, % of the Moon is Illuminated

Today's Extremes

State Highs State Lows

Community

WunderPhotos

Upload Photos

1,926,909 photos uploaded!

WunderBlog® & News

Nearby

Air Quality

  Air Quality AQ Index Pollutant
Not available.

Snow Depth

Station Depth Elevation

Earthquake Activity

City Distance Mag. Time & Date
Minimum magnitude displayed is 2.5.

Coastal Water Temperatures

Place Temperature

Stations

Nearby Weather Stations

Station Location Temp. Windchill Dew Point Humidity Wind Precip. Elev Updated Type
                   

Watches & Warnings

There are currently no watches in effect.